This is the latest recevied weather packets stored in our database for station/object SP8C-10. If no packets are shown the sender has not sent any weather packets the latest 10 day(s).
| Time | Temp. | Humidity | Pressure | Rain* | Wind** | Luminosity | Snow |
|---|---|---|---|---|---|---|---|
| 1788500846 | 24.44° C | 42% | 1015.9 hPa | - | - | - | - |
| 1788499046 | 24.44° C | 41% | 1016 hPa | - | - | - | - |
| 1788497246 | 24.44° C | 40% | 1015.8 hPa | - | - | - | - |
| 1788495445 | 24.44° C | 40% | 1016.1 hPa | - | - | - | - |
| 1788493645 | 24.44° C | 40% | 1016.1 hPa | - | - | - | - |
| 1788491845 | 25° C | 39% | 1016 hPa | - | - | - | - |
| 1788490045 | 25° C | 39% | 1016.1 hPa | - | - | - | - |
| 1788488245 | 25° C | 39% | 1016 hPa | - | - | - | - |
| 1788484644 | 25.56° C | 38% | 1016.3 hPa | - | - | - | - |
| 1788481044 | 26.11° C | 38% | 1016.8 hPa | - | - | - | - |
| 1788470243 | 27.78° C | 35% | 1017.4 hPa | - | - | - | - |
| 1788464843 | 29.44° C | 33% | 1017.5 hPa | - | - | - | - |
| 1788443263 | 32.78° C | 34% | 1018 hPa | - | - | - | - |
| 1788441462 | 32.22° C | 35% | 1018.1 hPa | - | - | - | - |
| 1788432462 | 28.89° C | 42% | 1019.5 hPa | - | - | - | - |
| 1788430661 | 27.78° C | 44% | 1019.7 hPa | - | - | - | - |
| 1788428861 | 26.11° C | 47% | 1020 hPa | - | - | - | - |
| 1788427061 | 24.44° C | 47% | 1020.5 hPa | - | - | - | - |
| 1788425261 | 23.33° C | 43% | 1020.5 hPa | - | - | - | - |
| 1788423461 | 22.78° C | 43% | 1020.5 hPa | - | - | - | - |
| 1788421660 | 22.78° C | 43% | 1020.3 hPa | - | - | - | - |
| 1788419860 | 22.22° C | 43% | 1020.8 hPa | - | - | - | - |
| 1788418060 | 22.22° C | 42% | 1020.7 hPa | - | - | - | - |
| 1788416260 | 22.22° C | 41% | 1020.8 hPa | - | - | - | - |
| 1788414460 | 21.67° C | 41% | 1020.5 hPa | - | - | - | - |
* Rain since midnight (hover to see other rain measurements)
** Current wind speed in m/s (hover to see current wind gust speed)